Time;durP1;ratioP1;P1;durP2;ratioP2;P2;SDS_P1;SDS_P2;PMS_P1;PMS_P2;Temp;Humidity;BMP_temperature;BMP_pressure;BME280_temperature;BME280_humidity;BME280_pressure;Samples;Min_cycle;Max_cycle;Signal;HPM_P1;HPM_P2
2023/08/21 00:00:00;;;;;;;7.35;5.22;;;23.60;99.90;;;;;;5032338;28;20021;-81
2023/08/21 00:02:27;;;;;;;9.60;5.57;;;23.60;99.90;;;;;;5032368;28;20414;-82
2023/08/21 00:04:54;;;;;;;8.05;5.43;;;23.60;99.90;;;;;;5032123;28;20030;-81
2023/08/21 00:07:19;;;;;;;7.50;6.13;;;23.60;99.90;;;;;;5032236;28;20076;-82
2023/08/21 00:09:45;;;;;;;10.07;5.78;;;23.60;99.90;;;;;;5030369;28;20565;-81
2023/08/21 00:12:11;;;;;;;10.88;6.13;;;23.60;99.90;;;;;;5032224;28;20112;-81
2023/08/21 00:14:37;;;;;;;11.82;6.15;;;23.60;99.90;;;;;;5030682;28;20525;-81
2023/08/21 00:17:03;;;;;;;11.90;6.13;;;23.50;99.90;;;;;;5032348;28;20036;-81
2023/08/21 00:19:29;;;;;;;8.90;6.30;;;23.50;99.90;;;;;;5031301;28;20103;-81
2023/08/21 00:21:55;;;;;;;10.25;6.50;;;23.50;99.90;;;;;;5032095;28;20033;-81
2023/08/21 00:24:20;;;;;;;10.73;6.57;;;23.50;99.90;;;;;;5030415;28;20410;-81
2023/08/21 00:26:46;;;;;;;16.95;6.65;;;23.60;99.90;;;;;;5031772;28;20045;-81
2023/08/21 00:29:12;;;;;;;9.05;6.88;;;23.60;99.90;;;;;;5030080;28;20033;-81
2023/08/21 00:31:37;;;;;;;9.63;6.43;;;23.60;99.90;;;;;;5031491;28;20037;-81
2023/08/21 00:34:03;;;;;;;9.35;7.03;;;23.60;99.90;;;;;;5031477;28;20451;-81
2023/08/21 00:36:29;;;;;;;10.50;6.97;;;23.60;99.90;;;;;;5030601;28;20442;-80
2023/08/21 00:38:54;;;;;;;11.30;6.95;;;23.60;99.90;;;;;;5031834;28;20076;-80
2023/08/21 00:41:20;;;;;;;10.73;7.07;;;23.50;99.90;;;;;;5030331;28;20044;-81
2023/08/21 00:43:45;;;;;;;7.80;7.00;;;23.50;99.90;;;;;;5030103;28;20095;-81
2023/08/21 00:46:11;;;;;;;9.70;7.20;;;23.50;99.90;;;;;;5031318;28;20041;-81
2023/08/21 00:48:37;;;;;;;11.73;7.40;;;23.50;99.90;;;;;;5030541;28;20021;-81
2023/08/21 00:51:05;;;;;;;8.85;6.95;;;23.40;99.90;;;;;;5031480;28;20057;-82
2023/08/21 00:53:30;;;;;;;14.13;7.72;;;23.40;99.90;;;;;;5031312;28;20612;-81
2023/08/21 00:55:56;;;;;;;9.00;7.03;;;23.40;99.90;;;;;;5029999;28;20037;-82
2023/08/21 00:58:22;;;;;;;12.98;7.53;;;23.30;99.90;;;;;;5030043;28;20494;-81
2023/08/21 01:00:50;;;;;;;9.77;7.13;;;23.20;99.90;;;;;;5030006;28;20030;-82
2023/08/21 01:03:15;;;;;;;8.73;7.30;;;23.20;99.90;;;;;;5030088;28;20037;-82
2023/08/21 01:05:41;;;;;;;8.68;6.68;;;23.10;99.90;;;;;;5030805;28;20025;-82
2023/08/21 01:08:19;;;;;;;10.82;7.43;;;23.10;99.90;;;;;;5031023;28;20040;-81
2023/08/21 01:10:58;;;;;;;8.63;7.20;;;23.10;99.90;;;;;;5030766;28;20100;-80
2023/08/21 01:13:53;;;;;;;9.93;7.32;;;23.00;99.90;;;;;;5031012;28;20142;-81
2023/08/21 01:16:21;;;;;;;8.20;7.40;;;23.00;99.90;;;;;;5031139;28;20033;-81
2023/08/21 01:18:48;;;;;;;9.95;8.27;;;22.90;99.90;;;;;;5030995;28;20021;-81
2023/08/21 01:21:15;;;;;;;13.98;8.38;;;22.90;99.90;;;;;;5029467;28;20230;-82
2023/08/21 01:23:42;;;;;;;12.00;7.90;;;22.80;99.90;;;;;;5030761;28;20104;-81
2023/08/21 01:26:07;;;;;;;10.63;8.38;;;22.80;99.90;;;;;;5029708;28;20065;-83
2023/08/21 01:28:34;;;;;;;8.27;7.25;;;22.70;99.90;;;;;;5031318;28;20067;-82
2023/08/21 01:31:18;;;;;;;9.30;8.30;;;22.70;99.90;;;;;;5029508;28;20489;-82
2023/08/21 01:34:01;;;;;;;15.32;8.30;;;22.70;99.90;;;;;;5029489;28;20025;-82
2023/08/21 01:36:28;;;;;;;12.52;7.50;;;22.60;99.90;;;;;;5030419;28;20060;-81
2023/08/21 01:38:54;;;;;;;8.82;7.85;;;22.60;99.90;;;;;;5030415;28;20551;-80
2023/08/21 01:41:22;;;;;;;9.85;7.57;;;22.60;99.90;;;;;;5029873;28;20022;-83
2023/08/21 01:43:48;;;;;;;10.77;8.13;;;22.50;99.90;;;;;;5029681;28;20021;-82
2023/08/21 01:46:14;;;;;;;11.85;8.70;;;22.50;99.90;;;;;;5028845;28;20099;-80
2023/08/21 01:48:39;;;;;;;8.82;8.02;;;22.50;99.90;;;;;;5030251;28;20029;-82
2023/08/21 01:51:05;;;;;;;8.55;7.32;;;22.60;99.90;;;;;;5030279;28;20038;-82
2023/08/21 01:53:31;;;;;;;10.35;7.75;;;22.60;99.90;;;;;;5029512;28;20029;-83
2023/08/21 01:55:56;;;;;;;10.93;8.10;;;22.60;99.90;;;;;;5029049;28;20140;-81
2023/08/21 01:58:22;;;;;;;11.07;7.85;;;22.60;99.90;;;;;;5030771;28;20481;-83
2023/08/21 02:00:48;;;;;;;12.55;7.20;;;22.50;99.90;;;;;;5030167;28;20039;-81
2023/08/21 02:03:14;;;;;;;13.60;8.75;;;22.60;99.90;;;;;;5029888;28;20030;-81
2023/08/21 02:05:40;;;;;;;10.00;7.38;;;22.60;99.90;;;;;;5029937;28;20129;-81
2023/08/21 02:08:07;;;;;;;10.68;7.28;;;22.50;99.90;;;;;;5030121;28;20444;-81
2023/08/21 02:10:32;;;;;;;13.27;8.25;;;22.50;99.90;;;;;;5029728;28;20049;-81
2023/08/21 02:12:58;;;;;;;9.25;8.13;;;22.50;99.90;;;;;;5028024;28;20429;-81
2023/08/21 02:15:24;;;;;;;7.30;6.60;;;22.50;99.90;;;;;;5028474;28;20064;-81
2023/08/21 02:17:49;;;;;;;8.15;6.90;;;22.50;99.90;;;;;;5029890;28;20018;-81
2023/08/21 02:20:15;;;;;;;10.02;7.75;;;22.50;99.90;;;;;;5028470;28;20536;-81
2023/08/21 02:22:41;;;;;;;10.82;7.60;;;22.40;99.90;;;;;;5029712;28;20030;-81
2023/08/21 02:25:07;;;;;;;9.23;7.53;;;22.40;99.90;;;;;;5028219;28;20039;-81
2023/08/21 02:27:32;;;;;;;7.63;6.93;;;22.40;99.90;;;;;;5029680;28;20535;-81
2023/08/21 02:29:58;;;;;;;10.55;7.85;;;22.40;99.90;;;;;;5028318;28;20405;-81
2023/08/21 02:32:24;;;;;;;9.82;8.10;;;22.40;99.90;;;;;;5029601;28;20029;-81
2023/08/21 02:34:49;;;;;;;11.23;8.02;;;22.40;99.90;;;;;;5029557;28;20409;-81
2023/08/21 02:37:15;;;;;;;9.55;8.00;;;22.30;99.90;;;;;;5028150;28;20478;-81
2023/08/21 02:39:41;;;;;;;10.45;8.27;;;22.40;99.90;;;;;;5029563;28;20025;-81
2023/08/21 02:42:06;;;;;;;9.32;8.30;;;22.40;99.90;;;;;;5029648;28;20030;-80
2023/08/21 02:44:32;;;;;;;13.88;8.30;;;22.40;99.90;;;;;;5028267;28;20030;-81
2023/08/21 02:46:57;;;;;;;13.20;7.97;;;22.40;99.90;;;;;;5028070;28;20075;-80
2023/08/21 02:49:23;;;;;;;10.82;8.13;;;22.40;99.90;;;;;;5028198;28;20032;-81
2023/08/21 02:51:49;;;;;;;10.23;8.35;;;22.40;99.90;;;;;;5029982;28;20025;-80
2023/08/21 02:54:14;;;;;;;12.43;8.88;;;22.40;99.90;;;;;;5033181;28;20030;-80
2023/08/21 02:56:40;;;;;;;8.77;7.88;;;22.50;99.90;;;;;;5033485;28;20025;-81
2023/08/21 02:59:06;;;;;;;11.45;8.40;;;22.40;99.90;;;;;;5033531;28;20037;-80
2023/08/21 03:01:31;;;;;;;9.63;8.20;;;22.40;99.90;;;;;;5033399;28;20540;-81
2023/08/21 03:03:57;;;;;;;18.08;8.45;;;22.40;99.90;;;;;;5033507;28;20426;-82
2023/08/21 03:06:23;;;;;;;16.13;9.15;;;22.40;99.90;;;;;;5033184;28;20045;-82
2023/08/21 03:08:48;;;;;;;16.17;8.52;;;22.40;99.90;;;;;;5033546;28;20402;-81
2023/08/21 03:11:14;;;;;;;9.88;8.73;;;22.40;99.90;;;;;;5031756;28;20029;-81
2023/08/21 03:13:41;;;;;;;10.98;8.02;;;22.40;99.90;;;;;;5032868;28;20056;-82
2023/08/21 03:16:06;;;;;;;9.27;8.00;;;22.40;99.90;;;;;;5031789;28;20449;-81
2023/08/21 03:18:32;;;;;;;11.48;8.32;;;22.40;99.90;;;;;;5031594;28;20026;-80
2023/08/21 03:20:58;;;;;;;10.07;8.32;;;22.40;99.90;;;;;;5031462;28;20482;-80
2023/08/21 03:23:23;;;;;;;9.55;8.05;;;22.40;99.90;;;;;;5032886;28;20032;-81
2023/08/21 03:25:52;;;;;;;9.95;8.75;;;22.40;99.90;;;;;;5032798;28;20034;-81
2023/08/21 03:28:18;;;;;;;10.18;8.30;;;22.40;99.90;;;;;;5032853;28;20029;-81
2023/08/21 03:30:44;;;;;;;12.57;9.52;;;22.50;99.90;;;;;;5031773;28;20091;-82
2023/08/21 03:33:09;;;;;;;12.02;8.60;;;22.50;99.90;;;;;;5032691;28;20025;-79
2023/08/21 03:35:35;;;;;;;14.30;8.98;;;22.50;99.90;;;;;;5031303;28;20029;-80
2023/08/21 03:38:01;;;;;;;12.20;8.65;;;22.50;99.90;;;;;;5031755;28;20033;-80
2023/08/21 03:40:26;;;;;;;14.40;8.90;;;22.50;99.90;;;;;;5031866;28;20030;-81
2023/08/21 03:42:52;;;;;;;14.45;10.65;;;22.50;99.90;;;;;;5032579;28;20029;-79
2023/08/21 03:45:17;;;;;;;9.98;8.98;;;22.60;99.90;;;;;;5030807;28;20103;-80
2023/08/21 03:47:43;;;;;;;9.80;8.57;;;22.60;99.90;;;;;;5032259;28;20033;-78
2023/08/21 03:50:09;;;;;;;12.30;9.35;;;22.50;99.90;;;;;;5032283;28;20029;-79
2023/08/21 03:52:35;;;;;;;11.15;8.70;;;22.60;99.90;;;;;;5030892;28;20056;-80
2023/08/21 03:55:00;;;;;;;12.75;8.82;;;22.50;99.90;;;;;;5032228;28;20500;-80
2023/08/21 03:57:26;;;;;;;12.43;9.25;;;22.50;99.90;;;;;;5030963;28;20080;-79
2023/08/21 03:59:52;;;;;;;10.90;9.68;;;22.50;99.90;;;;;;5032060;28;20112;-79
2023/08/21 04:02:17;;;;;;;11.45;8.65;;;22.50;99.90;;;;;;5030487;28;20115;-79
2023/08/21 04:04:43;;;;;;;12.68;9.90;;;22.50;99.90;;;;;;5031195;28;20022;-79
2023/08/21 04:07:08;;;;;;;13.82;8.75;;;22.50;99.90;;;;;;5032117;28;20359;-81
2023/08/21 04:09:34;;;;;;;10.38;7.97;;;22.50;99.90;;;;;;5030793;28;20025;-81
2023/08/21 04:12:00;;;;;;;9.20;8.30;;;22.60;99.90;;;;;;5030862;28;20037;-80
2023/08/21 04:14:25;;;;;;;13.85;8.98;;;22.60;99.90;;;;;;5032023;28;20053;-82
2023/08/21 04:16:51;;;;;;;12.35;8.30;;;22.70;99.90;;;;;;5032039;28;20021;-80
2023/08/21 04:19:17;;;;;;;9.50;8.50;;;22.70;99.90;;;;;;5031971;28;20100;-79
2023/08/21 04:21:43;;;;;;;9.57;7.78;;;22.80;99.90;;;;;;5030909;28;20021;-82
2023/08/21 04:24:08;;;;;;;12.32;8.63;;;22.80;99.90;;;;;;5031088;28;20087;-81
2023/08/21 04:26:34;;;;;;;13.00;8.98;;;22.90;99.90;;;;;;5032269;28;20042;-81
2023/08/21 04:29:00;;;;;;;9.38;8.38;;;22.90;99.90;;;;;;5030623;28;20037;-81
2023/08/21 04:31:25;;;;;;;9.23;7.82;;;22.90;99.90;;;;;;5030277;28;20025;-80
2023/08/21 04:33:51;;;;;;;12.23;7.75;;;23.00;99.90;;;;;;5030713;28;20025;-81
2023/08/21 04:36:17;;;;;;;8.77;7.80;;;23.10;99.90;;;;;;5031796;28;20095;-81
2023/08/21 04:38:43;;;;;;;8.40;7.35;;;23.10;99.90;;;;;;5030413;28;20053;-81
2023/08/21 04:41:09;;;;;;;9.32;7.85;;;23.20;99.90;;;;;;5031865;28;20022;-81
2023/08/21 04:43:35;;;;;;;8.40;7.57;;;23.30;99.90;;;;;;5031628;28;20082;-80
2023/08/21 04:46:01;;;;;;;9.23;8.05;;;23.40;99.90;;;;;;5031273;28;20033;-80
2023/08/21 04:48:27;;;;;;;8.73;7.82;;;23.40;99.90;;;;;;5031200;28;20486;-81
2023/08/21 04:50:52;;;;;;;11.50;8.15;;;23.50;99.90;;;;;;5030163;28;20025;-81
2023/08/21 04:53:18;;;;;;;10.13;8.23;;;23.60;99.90;;;;;;5030193;28;20022;-81
2023/08/21 04:55:44;;;;;;;10.40;7.35;;;23.70;99.90;;;;;;5036151;28;20493;-81
2023/08/21 04:58:10;;;;;;;9.20;7.43;;;23.80;99.90;;;;;;5047106;28;20033;-80
2023/08/21 05:00:36;;;;;;;9.05;7.55;;;23.90;99.90;;;;;;5050945;28;20104;-79
2023/08/21 05:03:02;;;;;;;9.02;7.30;;;24.20;99.90;;;;;;5050985;28;20104;-82
2023/08/21 05:05:27;;;;;;;9.60;7.00;;;24.60;99.90;;;;;;5050533;28;20029;-80
2023/08/21 05:07:53;;;;;;;8.13;7.32;;;24.90;99.90;;;;;;5050853;28;20029;-80
2023/08/21 05:10:19;;;;;;;7.68;6.85;;;25.00;99.90;;;;;;5049765;28;20063;-82
2023/08/21 05:12:46;;;;;;;11.85;6.85;;;25.00;99.90;;;;;;5049343;28;20049;-80
2023/08/21 05:15:12;;;;;;;7.43;6.63;;;25.10;99.90;;;;;;5049318;28;20111;-80
2023/08/21 05:17:38;;;;;;;8.35;7.55;;;25.10;99.90;;;;;;5049251;28;20171;-79
2023/08/21 05:20:04;;;;;;;8.40;7.53;;;25.20;99.90;;;;;;5049547;28;20088;-80
2023/08/21 05:22:30;;;;;;;18.65;7.65;;;25.20;99.90;;;;;;5050215;28;20037;-79
2023/08/21 05:24:55;;;;;;;10.75;7.30;;;25.50;99.90;;;;;;5049205;28;20085;-79
2023/08/21 05:27:21;;;;;;;11.18;6.90;;;26.00;99.90;;;;;;5050348;28;20112;-79
2023/08/21 05:29:47;;;;;;;7.25;6.55;;;26.50;99.90;;;;;;5049067;28;20028;-78
2023/08/21 05:32:12;;;;;;;7.63;6.85;;;26.90;99.90;;;;;;5048855;28;20037;-79
2023/08/21 05:34:38;;;;;;;8.35;6.72;;;27.10;99.90;;;;;;5048898;28;20143;-79
2023/08/21 05:37:04;;;;;;;12.13;6.90;;;27.30;99.90;;;;;;5049793;28;20064;-79
2023/08/21 05:39:29;;;;;;;16.42;6.65;;;27.60;99.90;;;;;;5049991;28;20036;-80
2023/08/21 05:41:55;;;;;;;9.35;6.18;;;27.70;99.90;;;;;;5050106;28;20017;-81
2023/08/21 05:44:21;;;;;;;10.13;5.85;;;27.90;99.90;;;;;;5048759;28;20081;-82
2023/08/21 05:46:47;;;;;;;7.50;5.80;;;28.20;99.90;;;;;;5049972;28;20044;-81
2023/08/21 05:49:12;;;;;;;8.43;5.40;;;28.50;99.90;;;;;;5049854;28;20637;-81
2023/08/21 05:51:38;;;;;;;9.45;5.55;;;29.00;99.90;;;;;;5048723;28;20163;-81
2023/08/21 05:54:04;;;;;;;10.38;5.25;;;29.30;99.10;;;;;;5050188;28;20139;-82
2023/08/21 05:56:29;;;;;;;7.43;5.30;;;29.90;97.70;;;;;;5050091;28;20024;-81
2023/08/21 05:58:55;;;;;;;7.78;4.93;;;30.30;95.70;;;;;;5048426;28;20028;-81
2023/08/21 06:01:20;;;;;;;7.75;4.95;;;30.70;95.20;;;;;;5049751;28;20029;-82
2023/08/21 06:03:46;;;;;;;9.35;4.97;;;30.90;93.90;;;;;;5048421;28;20032;-80
2023/08/21 06:06:12;;;;;;;7.50;5.88;;;31.20;91.60;;;;;;5049440;28;20108;-81
2023/08/21 06:08:38;;;;;;;8.32;4.75;;;31.60;90.40;;;;;;5049794;28;20443;-81
2023/08/21 06:11:03;;;;;;;8.25;4.90;;;32.00;86.90;;;;;;5048170;28;20059;-82
2023/08/21 06:13:31;;;;;;;6.30;4.60;;;32.30;87.00;;;;;;5049403;28;20045;-82
2023/08/21 06:15:56;;;;;;;9.07;5.15;;;32.60;85.90;;;;;;5048200;28;20037;-81
2023/08/21 06:18:22;;;;;;;6.10;4.50;;;33.10;82.50;;;;;;5048471;28;20448;-81
2023/08/21 06:20:53;;;;;;;6.55;5.18;;;33.50;79.30;;;;;;5048320;28;20481;-80
2023/08/21 06:23:22;;;;;;;7.55;4.30;;;34.00;77.50;;;;;;5048051;28;20043;-80
2023/08/21 06:25:49;;;;;;;7.72;4.55;;;34.40;70.60;;;;;;5047114;28;20066;-81
2023/08/21 06:28:14;;;;;;;10.57;4.45;;;34.90;67.50;;;;;;5048971;28;20028;-80
2023/08/21 06:30:40;;;;;;;7.00;4.35;;;35.10;64.50;;;;;;5049683;28;20489;-83
2023/08/21 06:33:06;;;;;;;5.13;4.63;;;35.20;61.30;;;;;;5048197;28;20112;-78
2023/08/21 06:35:31;;;;;;;6.53;4.95;;;35.60;60.60;;;;;;5049471;28;20025;-82
2023/08/21 06:37:58;;;;;;;6.28;4.85;;;35.70;59.20;;;;;;5038815;28;20037;-80
2023/08/21 06:40:23;;;;;;;7.60;4.45;;;36.30;57.00;;;;;;5039464;28;20115;-80
2023/08/21 06:42:50;;;;;;;7.68;4.28;;;36.50;55.80;;;;;;5036991;28;20498;-81
2023/08/21 06:45:17;;;;;;;5.25;4.00;;;36.80;55.20;;;;;;5039579;28;20501;-81
2023/08/21 06:47:42;;;;;;;4.53;3.85;;;36.80;53.80;;;;;;5037185;28;20044;-81
2023/08/21 06:50:09;;;;;;;5.72;4.10;;;36.90;54.40;;;;;;5038855;28;20024;-81
2023/08/21 06:52:34;;;;;;;6.15;4.57;;;36.90;54.00;;;;;;5039402;28;20505;-80
2023/08/21 06:55:00;;;;;;;8.63;4.30;;;36.90;55.60;;;;;;5039038;28;20029;-81
2023/08/21 06:57:26;;;;;;;6.45;4.72;;;37.20;54.40;;;;;;5038499;28;20032;-80
2023/08/21 06:59:51;;;;;;;7.00;4.18;;;37.20;54.30;;;;;;5037728;28;20037;-81
2023/08/21 07:02:17;;;;;;;5.25;4.15;;;37.10;53.10;;;;;;5040729;28;20030;-81
2023/08/21 07:04:43;;;;;;;9.80;4.18;;;37.40;51.70;;;;;;5037960;28;20021;-81
2023/08/21 07:07:08;;;;;;;9.55;4.32;;;37.60;50.50;;;;;;5036879;28;20037;-80
2023/08/21 07:09:34;;;;;;;4.60;3.70;;;37.90;51.40;;;;;;5035507;28;20196;-80
2023/08/21 07:12:01;;;;;;;5.25;3.90;;;37.90;48.90;;;;;;5034358;28;20037;-81
2023/08/21 07:14:27;;;;;;;9.50;4.20;;;37.90;48.50;;;;;;5048882;28;20041;-81
2023/08/21 07:16:52;;;;;;;9.55;4.25;;;38.20;48.80;;;;;;5049067;28;20090;-80
2023/08/21 07:19:18;;;;;;;5.70;4.20;;;38.40;48.20;;;;;;5048959;28;20032;-81
2023/08/21 07:21:43;;;;;;;5.43;3.58;;;38.60;47.50;;;;;;5028742;28;20026;-79
2023/08/21 07:24:09;;;;;;;12.40;4.20;;;38.80;46.60;;;;;;5028863;28;20033;-81
2023/08/21 07:26:35;;;;;;;6.93;3.60;;;39.10;46.70;;;;;;5028741;28;20048;-79
2023/08/21 07:29:00;;;;;;;5.05;3.95;;;39.30;44.70;;;;;;5028875;28;20605;-81
2023/08/21 07:31:26;;;;;;;5.20;4.00;;;39.60;43.80;;;;;;5029012;28;20032;-80
2023/08/21 07:33:52;;;;;;;7.20;3.67;;;40.00;42.40;;;;;;5027675;28;20036;-80
2023/08/21 07:36:18;;;;;;;4.75;3.50;;;40.30;39.90;;;;;;5028794;28;20105;-81
2023/08/21 07:38:44;;;;;;;5.13;3.42;;;40.00;38.30;;;;;;5029177;28;20112;-81
2023/08/21 07:41:11;;;;;;;8.32;3.70;;;39.70;38.30;;;;;;5031217;28;20455;-81
2023/08/21 07:43:42;;;;;;;4.60;3.38;;;39.70;40.40;;;;;;5032370;28;20025;-80
2023/08/21 07:46:18;;;;;;;8.02;3.40;;;39.60;39.90;;;;;;5030872;28;20037;-79
2023/08/21 07:48:49;;;;;;;5.97;3.58;;;39.70;39.00;;;;;;5030986;28;20032;-80
2023/08/21 07:51:14;;;;;;;6.50;3.63;;;39.80;39.90;;;;;;5046338;28;20064;-79
2023/08/21 07:53:40;;;;;;;6.15;4.00;;;39.80;38.80;;;;;;5032801;28;20474;-81
2023/08/21 07:56:07;;;;;;;7.55;3.85;;;39.80;39.60;;;;;;5041556;28;20029;-80
2023/08/21 07:58:33;;;;;;;6.55;4.03;;;39.90;40.10;;;;;;5031654;28;20393;-80
2023/08/21 08:01:01;;;;;;;5.57;4.20;;;39.90;37.80;;;;;;5032437;28;20030;-81
2023/08/21 08:03:26;;;;;;;6.85;4.22;;;40.00;38.10;;;;;;5032104;28;20109;-81
2023/08/21 08:05:52;;;;;;;8.23;4.13;;;39.90;37.60;;;;;;5031947;28;20061;-80
2023/08/21 08:08:18;;;;;;;9.32;4.28;;;39.80;37.30;;;;;;5050387;28;20036;-81
2023/08/21 08:10:44;;;;;;;6.15;3.85;;;39.80;38.40;;;;;;5050536;28;20482;-79
2023/08/21 08:13:10;;;;;;;6.20;4.05;;;40.20;38.80;;;;;;5051268;28;20124;-81
2023/08/21 08:15:35;;;;;;;8.27;3.90;;;40.30;38.10;;;;;;5051659;28;20096;-80
2023/08/21 08:18:02;;;;;;;5.45;4.05;;;40.50;37.40;;;;;;5051691;28;20094;-81
2023/08/21 08:20:28;;;;;;;4.03;3.63;;;40.60;37.70;;;;;;5050217;28;20453;-79
2023/08/21 08:22:54;;;;;;;6.38;4.00;;;40.90;38.70;;;;;;5051553;28;20095;-80
2023/08/21 08:25:20;;;;;;;8.85;4.40;;;41.00;37.00;;;;;;5040959;28;20037;-81
2023/08/21 08:27:45;;;;;;;4.82;4.22;;;41.00;35.70;;;;;;5038020;28;20569;-81
2023/08/21 08:30:11;;;;;;;4.78;3.63;;;40.70;36.10;;;;;;5037200;28;20029;-80
2023/08/21 08:32:37;;;;;;;7.85;3.90;;;40.60;37.40;;;;;;5035318;28;20378;-81
2023/08/21 08:35:03;;;;;;;10.30;3.70;;;40.60;35.50;;;;;;5045559;28;20113;-82
2023/08/21 08:37:29;;;;;;;5.95;4.32;;;40.40;35.70;;;;;;5047169;28;20040;-81
2023/08/21 08:39:54;;;;;;;11.25;4.25;;;40.40;37.90;;;;;;5037342;28;20034;-81
2023/08/21 08:42:20;;;;;;;8.20;3.72;;;40.60;38.40;;;;;;5039760;28;20028;-80
2023/08/21 08:44:47;;;;;;;6.15;3.90;;;40.60;37.10;;;;;;5051496;28;20032;-80
2023/08/21 08:47:15;;;;;;;6.05;4.22;;;40.70;36.40;;;;;;5051263;28;20492;-81
2023/08/21 08:49:41;;;;;;;4.63;3.70;;;40.70;37.30;;;;;;5050606;28;20029;-81
2023/08/21 08:52:07;;;;;;;3.92;3.40;;;40.50;36.80;;;;;;5049754;28;20055;-81
2023/08/21 08:54:35;;;;;;;6.50;4.07;;;40.50;36.60;;;;;;5049678;28;20036;-80
2023/08/21 08:57:01;;;;;;;4.82;3.53;;;40.20;37.00;;;;;;5049619;28;20519;-80
2023/08/21 08:59:30;;;;;;;5.63;4.07;;;40.30;37.80;;;;;;5051042;28;20053;-80
2023/08/21 09:01:56;;;;;;;6.78;3.13;;;40.70;38.50;;;;;;5033681;28;20104;-81
2023/08/21 09:04:22;;;;;;;5.25;3.92;;;41.00;37.90;;;;;;5030664;28;20037;-81
2023/08/21 09:06:48;;;;;;;5.30;3.78;;;41.30;36.80;;;;;;5030760;28;20521;-80
2023/08/21 09:09:13;;;;;;;11.43;3.50;;;40.90;37.00;;;;;;5030680;28;20025;-79
2023/08/21 09:11:43;;;;;;;6.57;3.50;;;40.30;35.20;;;;;;5030668;28;20037;-81
2023/08/21 09:14:11;;;;;;;5.00;3.20;;;39.70;37.20;;;;;;5029328;28;20045;-79
2023/08/21 09:16:36;;;;;;;3.75;3.10;;;39.90;37.20;;;;;;5030592;28;20032;-79
2023/08/21 09:19:02;;;;;;;4.22;3.80;;;39.90;36.50;;;;;;5030530;28;20029;-80
2023/08/21 09:21:28;;;;;;;5.45;3.17;;;39.70;35.40;;;;;;5029426;28;20026;-80
2023/08/21 09:23:59;;;;;;;4.93;3.40;;;39.40;37.50;;;;;;5029150;28;20036;-80
2023/08/21 09:26:25;;;;;;;3.97;3.15;;;39.70;35.70;;;;;;5030240;28;20128;-81
2023/08/21 09:28:52;;;;;;;4.45;3.60;;;39.40;35.70;;;;;;5029032;28;20128;-80
2023/08/21 09:31:30;;;;;;;4.88;3.42;;;39.40;36.60;;;;;;5028981;28;20036;-81
2023/08/21 09:33:57;;;;;;;3.60;3.00;;;39.30;36.70;;;;;;5028987;28;20025;-81
2023/08/21 09:36:24;;;;;;;4.40;3.60;;;39.50;35.70;;;;;;5030148;28;20052;-79
2023/08/21 09:38:52;;;;;;;5.45;3.55;;;39.30;35.80;;;;;;5030317;28;20053;-80
2023/08/21 09:41:21;;;;;;;7.45;3.92;;;39.60;37.10;;;;;;5030055;28;20101;-80
2023/08/21 09:43:47;;;;;;;3.88;3.13;;;39.90;36.90;;;;;;5029855;28;20035;-80
2023/08/21 09:46:25;;;;;;;4.40;4.00;;;40.20;36.60;;;;;;5029840;28;20425;-80
2023/08/21 09:48:54;;;;;;;4.68;3.85;;;40.30;37.30;;;;;;5030071;28;20037;-81
2023/08/21 09:51:21;;;;;;;5.18;3.47;;;40.30;37.10;;;;;;5029933;28;20410;-80
2023/08/21 09:53:50;;;;;;;7.07;4.03;;;40.60;36.20;;;;;;5028561;28;20030;-80
2023/08/21 09:56:18;;;;;;;5.13;3.78;;;40.40;37.10;;;;;;5028609;28;20449;-81
2023/08/21 09:58:45;;;;;;;5.40;3.40;;;40.60;37.20;;;;;;5029919;28;20029;-80
2023/08/21 10:01:13;;;;;;;6.47;3.88;;;40.50;36.30;;;;;;5029463;28;20021;-80
2023/08/21 10:03:40;;;;;;;4.20;3.70;;;40.40;37.00;;;;;;5028047;28;20021;-80
2023/08/21 10:06:08;;;;;;;4.53;3.95;;;40.40;37.20;;;;;;5029685;28;20076;-79
2023/08/21 10:08:38;;;;;;;5.10;4.18;;;40.50;35.80;;;;;;5029571;28;20417;-79
2023/08/21 10:11:06;;;;;;;7.63;4.20;;;40.10;36.00;;;;;;5028400;28;20053;-81
2023/08/21 10:13:33;;;;;;;5.82;3.80;;;39.90;37.20;;;;;;5029245;28;20053;-80
2023/08/21 10:16:00;;;;;;;4.22;3.83;;;39.80;38.10;;;;;;5029457;28;20404;-81
2023/08/21 10:18:36;;;;;;;5.00;4.38;;;39.70;38.80;;;;;;5040612;28;20033;-82
2023/08/21 10:21:22;;;;;;;5.75;4.43;;;39.10;38.10;;;;;;5035733;28;20498;-81
2023/08/21 10:23:49;;;;;;;5.63;4.10;;;38.40;39.20;;;;;;5039196;28;20033;-80
2023/08/21 10:26:20;;;;;;;4.50;3.63;;;37.90;41.40;;;;;;5045593;28;20095;-80
2023/08/21 10:28:53;;;;;;;7.32;4.13;;;37.60;41.20;;;;;;5038980;28;20072;-80
2023/08/21 10:31:32;;;;;;;11.82;4.07;;;37.30;42.70;;;;;;5038527;28;20029;-80
2023/08/21 10:33:59;;;;;;;6.40;3.75;;;37.10;41.70;;;;;;5038456;28;20053;-81
2023/08/21 10:36:45;;;;;;;5.10;3.58;;;36.70;41.60;;;;;;5041225;28;20080;-80
2023/08/21 10:39:14;;;;;;;4.75;3.97;;;36.30;42.10;;;;;;5045195;28;20094;-80
2023/08/21 10:41:41;;;;;;;10.23;4.15;;;35.80;41.80;;;;;;5049295;28;20112;-80
2023/08/21 10:44:08;;;;;;;6.82;4.47;;;35.40;43.20;;;;;;5049239;28;20087;-78
2023/08/21 10:46:52;;;;;;;6.47;4.20;;;35.10;44.40;;;;;;5049134;28;20037;-79
2023/08/21 10:49:18;;;;;;;7.95;4.30;;;34.70;46.50;;;;;;5049000;28;20036;-79
2023/08/21 10:51:44;;;;;;;4.93;3.88;;;34.70;46.30;;;;;;5049126;28;20040;-80
2023/08/21 10:54:13;;;;;;;5.07;4.57;;;34.70;46.40;;;;;;5047829;28;20021;-79
2023/08/21 10:56:39;;;;;;;5.63;3.95;;;34.70;47.60;;;;;;5048671;28;20156;-80
2023/08/21 10:59:05;;;;;;;6.53;4.20;;;34.70;47.10;;;;;;5046525;28;20119;-80
2023/08/21 11:01:44;;;;;;;10.10;4.55;;;34.80;48.00;;;;;;5048541;28;20039;-80
2023/08/21 11:04:14;;;;;;;7.72;4.30;;;34.80;48.10;;;;;;5047527;28;20127;-80
2023/08/21 11:06:40;;;;;;;5.13;3.63;;;34.80;45.40;;;;;;5043162;28;20064;-80
2023/08/21 11:09:13;;;;;;;5.03;3.63;;;34.60;44.20;;;;;;5048730;28;20032;-79
2023/08/21 11:11:38;;;;;;;8.70;4.18;;;34.50;46.20;;;;;;5048921;28;20367;-79
2023/08/21 11:14:04;;;;;;;6.47;3.75;;;34.40;46.30;;;;;;5051097;28;20068;-80
2023/08/21 11:16:29;;;;;;;5.00;3.90;;;34.40;46.30;;;;;;5051593;28;20029;-80
2023/08/21 11:18:55;;;;;;;4.43;4.03;;;34.30;45.90;;;;;;5052569;28;20128;-79
2023/08/21 11:21:25;;;;;;;5.13;4.35;;;34.10;45.50;;;;;;5051169;28;20559;-80
2023/08/21 11:23:50;;;;;;;14.00;3.90;;;34.10;47.20;;;;;;5051188;28;20425;-80
2023/08/21 11:26:16;;;;;;;6.95;4.25;;;33.90;46.40;;;;;;5052557;28;20099;-79
2023/08/21 11:28:42;;;;;;;5.53;4.25;;;33.90;47.30;;;;;;5051559;28;20116;-80
2023/08/21 11:31:09;;;;;;;5.32;4.18;;;33.80;47.20;;;;;;5051363;28;20120;-80
2023/08/21 11:33:38;;;;;;;3.65;3.30;;;33.80;49.70;;;;;;5052359;28;20036;-80
2023/08/21 11:36:04;;;;;;;10.82;4.30;;;33.80;49.80;;;;;;5051262;28;20405;-79
2023/08/21 11:38:30;;;;;;;5.40;3.70;;;33.90;48.10;;;;;;5052436;28;20447;-79
2023/08/21 11:41:05;;;;;;;5.07;3.50;;;33.90;47.90;;;;;;5050788;28;20032;-79
2023/08/21 11:43:39;;;;;;;4.60;3.47;;;33.80;46.10;;;;;;5052425;28;20681;-81
2023/08/21 11:46:06;;;;;;;4.70;3.58;;;33.80;46.50;;;;;;5052401;28;20305;-79
2023/08/21 11:48:32;;;;;;;3.95;3.40;;;33.70;46.30;;;;;;5052251;28;20052;-80
2023/08/21 11:50:58;;;;;;;5.88;3.72;;;33.60;45.60;;;;;;5050879;28;20033;-80
2023/08/21 11:53:32;;;;;;;4.53;3.42;;;33.60;45.70;;;;;;5052080;28;20021;-80
2023/08/21 11:55:58;;;;;;;4.15;3.70;;;33.40;45.40;;;;;;5050759;28;20033;-79
2023/08/21 11:58:26;;;;;;;5.68;3.88;;;33.40;46.20;;;;;;5050779;28;20025;-80
2023/08/21 12:00:51;;;;;;;5.55;3.63;;;33.40;47.40;;;;;;5049639;28;20037;-79
2023/08/21 12:03:18;;;;;;;4.32;3.20;;;33.40;48.80;;;;;;5030993;28;20494;-80
2023/08/21 12:05:44;;;;;;;3.30;3.00;;;33.50;46.10;;;;;;5031893;28;20022;-80
2023/08/21 12:08:09;;;;;;;7.15;2.90;;;33.50;45.90;;;;;;5032236;28;20044;-80
2023/08/21 12:10:35;;;;;;;4.65;3.30;;;33.50;46.20;;;;;;5030674;28;20072;-79
2023/08/21 12:13:01;;;;;;;8.20;3.42;;;33.50;46.00;;;;;;5030373;28;20080;-81
2023/08/21 12:15:27;;;;;;;10.75;3.33;;;33.50;45.40;;;;;;5031931;28;20030;-81
2023/08/21 12:17:52;;;;;;;5.57;3.22;;;33.60;45.00;;;;;;5030565;28;20061;-79
2023/08/21 12:20:18;;;;;;;9.38;3.40;;;33.70;43.50;;;;;;5030507;28;20527;-81
2023/08/21 12:22:44;;;;;;;7.00;3.25;;;33.70;45.30;;;;;;5031656;28;20068;-80
2023/08/21 12:25:10;;;;;;;5.93;3.88;;;33.80;46.60;;;;;;5029730;28;20034;-80
2023/08/21 12:27:36;;;;;;;5.15;3.63;;;33.70;45.90;;;;;;5047319;28;20068;-80
2023/08/21 12:30:02;;;;;;;6.13;2.85;;;33.60;45.10;;;;;;5031704;28;20040;-80
2023/08/21 12:32:28;;;;;;;4.38;3.30;;;33.50;45.00;;;;;;5031476;28;20497;-80
2023/08/21 12:34:54;;;;;;;7.10;3.50;;;33.50;45.40;;;;;;5030200;28;20041;-80
2023/08/21 12:37:19;;;;;;;5.20;3.10;;;33.50;45.70;;;;;;5031606;28;20036;-81
2023/08/21 12:39:45;;;;;;;4.50;3.05;;;33.40;44.90;;;;;;5031292;28;20040;-80